createdAt,value
2023-04-22T00:03:16.637Z,35.47
2023-04-22T00:10:18.448Z,35.75
2023-04-22T00:17:20.081Z,35.80
2023-04-22T00:24:21.750Z,36.06
2023-04-22T00:31:23.506Z,36.18
2023-04-22T00:38:25.197Z,36.39
2023-04-22T00:45:26.929Z,36.67
2023-04-22T00:52:28.545Z,36.79
2023-04-22T00:59:30.161Z,36.80
2023-04-22T01:06:32.420Z,36.99
2023-04-22T01:13:35.798Z,37.38
2023-04-22T01:20:37.421Z,37.38
2023-04-22T01:27:39.171Z,37.82
2023-04-22T01:34:40.873Z,38.02
2023-04-22T01:41:42.521Z,37.90
2023-04-22T01:48:50.204Z,38.36
2023-04-22T01:55:51.968Z,38.26
2023-04-22T02:02:53.942Z,38.38
2023-04-22T02:09:56.007Z,38.31
2023-04-22T02:16:58.008Z,38.38
2023-04-22T02:23:59.768Z,38.52
2023-04-22T02:31:03.602Z,38.79
2023-04-22T02:38:05.276Z,39.00
2023-04-22T02:45:07.388Z,39.53
2023-04-22T02:52:11.149Z,39.15
2023-04-22T02:59:12.880Z,39.10
2023-04-22T03:06:14.747Z,39.05
2023-04-22T03:13:17.391Z,39.63
2023-04-22T03:20:20.486Z,39.64
2023-04-22T03:27:22.474Z,39.70
2023-04-22T03:34:24.137Z,40.03
2023-04-22T03:41:26.589Z,40.83
2023-04-22T03:48:29.998Z,40.63
2023-04-22T03:55:32.125Z,41.17
2023-04-22T04:02:33.922Z,41.15
2023-04-22T04:09:36.057Z,41.52
2023-04-22T04:16:37.764Z,41.58
2023-04-22T04:23:48.649Z,41.93
2023-04-22T04:30:53.629Z,42.08
2023-04-22T04:37:55.355Z,42.60
2023-04-22T04:44:58.401Z,42.62
2023-04-22T04:52:01.853Z,42.91
2023-04-22T04:59:04.869Z,42.90
2023-04-22T05:06:08.643Z,42.91
2023-04-22T05:13:12.760Z,42.88
2023-04-22T05:20:18.937Z,42.91
2023-04-22T05:27:20.713Z,42.88
2023-04-22T05:34:22.415Z,43.23
2023-04-22T05:41:24.786Z,43.10
2023-04-22T05:48:27.234Z,43.66
2023-04-22T05:55:35.482Z,43.34
2023-04-22T06:02:39.548Z,43.36
2023-04-22T06:09:42.279Z,43.94
2023-04-22T06:16:44.087Z,43.10
2023-04-22T06:23:46.211Z,42.53
2023-04-22T06:30:47.909Z,43.35
2023-04-22T06:37:51.072Z,42.81
2023-04-22T06:44:52.881Z,41.82
2023-04-22T06:52:06.362Z,42.16
2023-04-22T06:59:09.184Z,41.72
2023-04-22T07:06:11.166Z,41.47
2023-04-22T07:13:14.138Z,40.61
2023-04-22T07:20:15.797Z,39.87
2023-04-22T07:27:17.422Z,39.45
2023-04-22T07:34:19.140Z,38.63
2023-04-22T07:41:20.919Z,38.09
2023-04-22T07:48:22.985Z,37.65
2023-04-22T07:55:24.508Z,36.24
2023-04-22T08:02:26.184Z,36.01
2023-04-22T08:09:27.909Z,36.24
2023-04-22T08:16:29.633Z,35.42
2023-04-22T08:23:31.373Z,34.23
2023-04-22T08:30:33.002Z,33.85
2023-04-22T08:37:34.630Z,32.32
2023-04-22T08:44:36.383Z,31.77
2023-04-22T08:51:37.966Z,30.92
2023-04-22T08:58:41.208Z,29.83
2023-04-22T09:05:42.765Z,29.14
2023-04-22T09:12:44.342Z,28.43
2023-04-22T09:19:46.046Z,28.30
2023-04-22T09:26:47.665Z,27.80
2023-04-22T09:33:56.511Z,26.13
2023-04-22T09:40:58.159Z,26.23
2023-04-22T09:48:01.822Z,25.94
2023-04-22T09:55:03.585Z,24.52
2023-04-22T10:02:06.710Z,25.22
2023-04-22T10:09:09.658Z,24.17
2023-04-22T10:16:11.326Z,22.90
2023-04-22T10:23:20.692Z,23.06
2023-04-22T10:30:29.603Z,21.80
2023-04-22T10:37:33.610Z,20.89
2023-04-22T10:44:51.312Z,20.96
2023-04-22T10:51:53.512Z,21.08
2023-04-22T10:58:56.290Z,20.76
2023-04-22T11:06:17.318Z,19.68
2023-04-22T11:13:19.457Z,19.40
2023-04-22T11:20:21.164Z,19.40
2023-04-22T11:27:26.551Z,18.37
2023-04-22T11:34:29.358Z,17.51
2023-04-22T11:41:31.298Z,17.38
2023-04-22T11:48:32.895Z,17.88
2023-04-22T11:55:35.835Z,17.00
2023-04-22T12:02:37.556Z,16.82
2023-04-22T12:09:39.663Z,17.49
2023-04-22T12:16:41.836Z,16.41
2023-04-22T12:23:43.812Z,17.45
2023-04-22T12:30:45.441Z,15.96
2023-04-22T12:37:47.196Z,15.35
2023-04-22T12:44:49.111Z,15.36
2023-04-22T12:51:51.462Z,14.87
2023-04-22T12:58:53.197Z,14.58
2023-04-22T13:05:54.858Z,14.53
2023-04-22T13:13:06.415Z,13.93
2023-04-22T13:20:18.203Z,13.99
2023-04-22T13:27:19.749Z,14.19
2023-04-22T13:34:21.498Z,14.85
2023-04-22T13:41:23.055Z,14.10
2023-04-22T13:48:24.646Z,14.70
2023-04-22T13:55:26.745Z,14.29
2023-04-22T14:02:28.804Z,15.31
2023-04-22T14:09:30.650Z,15.82
2023-04-22T14:16:32.317Z,15.74
2023-04-22T14:23:33.956Z,15.36
2023-04-22T14:30:35.763Z,15.64
2023-04-22T14:37:37.678Z,15.17
2023-04-22T14:44:39.253Z,15.65
2023-04-22T14:51:40.882Z,16.46
2023-04-22T14:58:42.770Z,16.79
2023-04-22T15:05:45.353Z,16.62
2023-04-22T15:12:46.987Z,16.21
2023-04-22T15:19:49.809Z,16.62
2023-04-22T15:26:52.402Z,16.49
2023-04-22T15:33:54.683Z,16.93
2023-04-22T15:40:56.300Z,16.99
2023-04-22T15:47:58.122Z,17.09
2023-04-22T15:55:01.521Z,17.43
2023-04-22T16:02:03.181Z,17.84
2023-04-22T16:09:05.414Z,17.75
2023-04-22T16:16:07.206Z,18.55
2023-04-22T16:23:08.815Z,18.37
2023-04-22T16:30:10.859Z,18.61
2023-04-22T16:37:12.415Z,19.17
2023-04-22T16:44:13.986Z,19.08
2023-04-22T16:51:15.592Z,20.01
2023-04-22T16:58:17.178Z,20.20
2023-04-22T17:05:18.898Z,20.50
2023-04-22T17:12:20.656Z,20.74
2023-04-22T17:19:23.368Z,21.31
2023-04-22T17:26:25.187Z,21.78
2023-04-22T17:33:26.872Z,21.75
2023-04-22T17:40:28.522Z,21.75
2023-04-22T17:47:30.258Z,22.47
2023-04-22T17:54:31.882Z,22.22
2023-04-22T18:01:33.485Z,23.15
2023-04-22T18:08:35.141Z,22.96
2023-04-22T18:15:36.756Z,23.75
2023-04-22T18:22:38.574Z,23.33
2023-04-22T18:29:40.421Z,23.84
2023-04-22T18:36:42.295Z,23.78
2023-04-22T18:43:43.879Z,24.03
2023-04-22T18:50:45.479Z,24.41
2023-04-22T18:57:47.111Z,24.41
2023-04-22T19:04:48.840Z,24.75
2023-04-22T19:11:50.663Z,25.12
2023-04-22T19:18:52.343Z,25.21
2023-04-22T19:25:53.945Z,25.61
2023-04-22T19:32:56.136Z,25.94
2023-04-22T19:39:57.931Z,26.47
2023-04-22T19:46:59.582Z,26.50
2023-04-22T19:54:01.618Z,26.87
2023-04-22T20:01:04.128Z,27.17
2023-04-22T20:08:07.237Z,27.00
2023-04-22T20:15:09.338Z,27.55
2023-04-22T20:22:11.951Z,27.91
2023-04-22T20:29:14.611Z,28.12
2023-04-22T20:36:16.950Z,28.77
2023-04-22T20:43:18.574Z,28.69
2023-04-22T20:57:22.570Z,29.44
2023-04-22T21:04:25.011Z,29.25
2023-04-22T21:11:27.518Z,29.55
2023-04-22T21:18:30.761Z,30.00
2023-04-22T21:25:32.370Z,30.24
2023-04-22T21:32:40.289Z,30.58
2023-04-22T21:39:42.152Z,31.09
2023-04-22T21:46:45.343Z,31.14
2023-04-22T21:53:47.025Z,31.65
2023-04-22T22:00:48.790Z,32.43
2023-04-22T22:07:50.412Z,32.29
2023-04-22T22:14:52.010Z,32.80
2023-04-22T22:21:53.623Z,32.55
2023-04-22T22:28:55.213Z,32.70
2023-04-22T22:35:56.948Z,32.83
2023-04-22T22:42:58.632Z,33.52
2023-04-22T22:50:00.428Z,33.21
2023-04-22T22:57:02.302Z,33.47
2023-04-22T23:04:04.471Z,33.48
2023-04-22T23:11:06.342Z,33.91
2023-04-22T23:18:08.908Z,33.77
2023-04-22T23:25:13.564Z,34.57
2023-04-22T23:32:15.524Z,34.89
2023-04-22T23:39:17.098Z,34.87
2023-04-22T23:46:18.910Z,35.18
2023-04-22T23:53:20.720Z,35.20
